createdAt,value
2024-03-15T00:01:01.015Z,82.51
2024-03-15T00:03:39.071Z,82.51
2024-03-15T00:06:10.819Z,82.63
2024-03-15T00:08:42.077Z,82.62
2024-03-15T00:11:12.580Z,82.64
2024-03-15T00:13:46.817Z,82.71
2024-03-15T00:16:20.530Z,82.66
2024-03-15T00:18:50.684Z,82.69
2024-03-15T00:21:20.746Z,82.82
2024-03-15T00:23:52.967Z,82.93
2024-03-15T00:26:24.455Z,82.91
2024-03-15T00:28:56.474Z,82.83
2024-03-15T00:31:27.276Z,82.88
2024-03-15T00:33:57.317Z,82.90
2024-03-15T00:36:37.929Z,82.90
2024-03-15T00:39:15.043Z,82.99
2024-03-15T00:41:46.719Z,82.91
2024-03-15T00:44:19.924Z,82.88
2024-03-15T00:46:49.872Z,82.84
2024-03-15T00:49:20.507Z,82.78
2024-03-15T00:51:52.364Z,82.82
2024-03-15T00:54:24.312Z,82.80
2024-03-15T00:56:54.557Z,82.86
2024-03-15T00:59:24.731Z,82.84
2024-03-15T01:01:54.549Z,82.79
2024-03-15T01:04:23.793Z,82.82
2024-03-15T01:06:55.282Z,82.77
2024-03-15T01:09:25.392Z,82.64
2024-03-15T01:11:55.117Z,82.64
2024-03-15T01:14:26.057Z,82.68
2024-03-15T01:16:57.421Z,82.66
2024-03-15T01:19:34.856Z,82.63
2024-03-15T01:22:09.667Z,82.64
2024-03-15T01:24:41.231Z,82.63
2024-03-15T01:27:11.526Z,82.63
2024-03-15T01:29:41.070Z,82.78
2024-03-15T01:32:12.271Z,82.76
2024-03-15T01:34:44.190Z,82.76
2024-03-15T01:37:14.381Z,82.81
2024-03-15T01:39:46.549Z,82.94
2024-03-15T01:42:19.708Z,82.97
2024-03-15T01:44:52.260Z,82.93
2024-03-15T01:47:27.952Z,82.89
2024-03-15T01:49:58.426Z,83.01
2024-03-15T01:52:33.454Z,83.03
2024-03-15T01:55:03.970Z,83.03
2024-03-15T01:57:35.414Z,83.08
2024-03-15T02:00:06.480Z,83.14
2024-03-15T02:02:37.193Z,83.14
2024-03-15T02:05:06.791Z,83.12
2024-03-15T02:07:35.988Z,83.10
2024-03-15T02:10:12.152Z,83.11
2024-03-15T02:12:41.544Z,83.14
2024-03-15T02:15:14.607Z,83.14
2024-03-15T02:17:44.228Z,83.18
2024-03-15T02:20:17.152Z,83.09
2024-03-15T02:22:46.473Z,83.27
2024-03-15T02:25:15.732Z,83.27
2024-03-15T02:27:45.434Z,83.31
2024-03-15T02:30:15.035Z,83.31
2024-03-15T02:32:44.458Z,83.32
2024-03-15T02:35:20.254Z,83.42
2024-03-15T02:37:57.336Z,83.37
2024-03-15T02:40:26.674Z,83.37
2024-03-15T02:42:56.166Z,83.44
2024-03-15T02:45:26.958Z,83.55
2024-03-15T02:47:56.421Z,83.53
2024-03-15T02:50:25.579Z,83.55
2024-03-15T02:52:54.642Z,83.65
2024-03-15T02:55:23.750Z,83.61
2024-03-15T02:57:53.023Z,83.68
2024-03-15T03:00:22.876Z,83.69
2024-03-15T03:02:54.738Z,83.71
2024-03-15T03:05:24.052Z,83.55
2024-03-15T03:07:53.366Z,83.84
2024-03-15T03:10:22.710Z,83.84
2024-03-15T03:12:52.027Z,83.82
2024-03-15T03:15:22.036Z,83.88
2024-03-15T03:17:52.972Z,84.00
2024-03-15T03:20:25.466Z,83.98
2024-03-15T03:22:55.250Z,84.03
2024-03-15T03:25:24.410Z,83.90
2024-03-15T03:27:53.685Z,83.97
2024-03-15T03:30:23.014Z,84.01
2024-03-15T03:32:53.765Z,84.25
2024-03-15T03:35:22.846Z,84.02
2024-03-15T03:37:52.003Z,84.16
2024-03-15T03:40:26.157Z,84.06
2024-03-15T03:42:56.230Z,84.34
2024-03-15T03:45:28.613Z,84.14
2024-03-15T03:47:59.183Z,84.33
2024-03-15T03:50:31.512Z,84.21
2024-03-15T03:53:01.395Z,84.60
2024-03-15T03:55:30.815Z,84.53
2024-03-15T03:58:00.451Z,84.53
2024-03-15T04:00:32.754Z,84.47
2024-03-15T04:03:04.164Z,84.56
2024-03-15T04:05:34.642Z,84.69
2024-03-15T04:08:05.916Z,84.54
2024-03-15T04:10:38.128Z,84.75
2024-03-15T04:13:08.964Z,84.66
2024-03-15T04:15:38.385Z,84.58
2024-03-15T04:18:08.376Z,84.86
2024-03-15T04:20:40.368Z,84.62
2024-03-15T04:23:11.109Z,84.60
2024-03-15T04:25:41.783Z,84.56
2024-03-15T04:28:12.477Z,84.58
2024-03-15T04:30:41.742Z,84.47
2024-03-15T04:33:11.123Z,84.48
2024-03-15T04:35:41.569Z,84.60
2024-03-15T04:38:10.788Z,84.56
2024-03-15T04:40:40.397Z,84.54
2024-03-15T04:43:12.251Z,84.65
2024-03-15T04:45:41.424Z,84.68
2024-03-15T04:48:11.330Z,84.65
2024-03-15T04:50:41.262Z,84.63
2024-03-15T04:53:11.243Z,84.55
2024-03-15T04:55:41.551Z,84.61
2024-03-15T04:58:13.192Z,84.61
2024-03-15T05:00:43.588Z,84.84
2024-03-15T05:03:13.820Z,84.82
2024-03-15T05:05:44.511Z,84.69
2024-03-15T05:08:14.936Z,84.80
2024-03-15T05:10:46.217Z,85.02
2024-03-15T05:13:17.167Z,85.04
2024-03-15T05:15:46.407Z,85.02
2024-03-15T05:18:15.677Z,84.90
2024-03-15T05:20:44.781Z,84.96
2024-03-15T05:23:13.893Z,85.15
2024-03-15T05:25:43.519Z,85.02
2024-03-15T05:28:13.114Z,84.94
2024-03-15T05:30:45.001Z,85.19
2024-03-15T05:33:14.513Z,85.30
2024-03-15T05:35:47.603Z,84.84
2024-03-15T05:38:17.107Z,85.11
2024-03-15T05:40:47.435Z,85.20
2024-03-15T05:43:18.037Z,85.31
2024-03-15T05:45:47.346Z,85.42
2024-03-15T05:48:16.637Z,85.26
2024-03-15T05:50:46.290Z,85.17
2024-03-15T05:53:16.380Z,85.24
2024-03-15T05:55:45.881Z,85.39
2024-03-15T05:58:14.984Z,85.11
2024-03-15T06:00:44.579Z,85.21
2024-03-15T06:03:13.618Z,85.08
2024-03-15T06:05:42.755Z,85.06
2024-03-15T06:08:11.842Z,85.01
2024-03-15T06:10:40.991Z,84.90
2024-03-15T06:13:10.758Z,85.23
2024-03-15T06:15:40.269Z,85.17
2024-03-15T06:18:09.463Z,85.09
2024-03-15T06:20:38.933Z,85.03
2024-03-15T06:23:08.073Z,85.32
2024-03-15T06:25:37.561Z,84.87
2024-03-15T06:28:09.824Z,85.09
2024-03-15T06:30:44.670Z,85.10
2024-03-15T06:33:15.138Z,85.14
2024-03-15T06:35:45.417Z,84.98
2024-03-15T06:38:29.061Z,85.28
2024-03-15T06:41:12.464Z,85.00
2024-03-15T06:43:46.780Z,85.09
2024-03-15T06:46:25.291Z,85.04
2024-03-15T06:49:01.473Z,85.28
2024-03-15T06:51:48.246Z,85.20
2024-03-15T06:54:17.514Z,85.29
2024-03-15T06:56:46.919Z,85.44
2024-03-15T06:59:16.305Z,85.29
2024-03-15T07:01:46.080Z,85.24
2024-03-15T07:04:16.055Z,85.21
2024-03-15T07:06:47.002Z,84.91
2024-03-15T07:09:18.655Z,84.94
2024-03-15T07:11:49.582Z,84.95
2024-03-15T07:14:19.394Z,84.94
2024-03-15T07:16:50.322Z,84.90
2024-03-15T07:19:20.560Z,85.00
2024-03-15T07:21:49.794Z,84.91
2024-03-15T07:24:19.008Z,84.95
2024-03-15T07:26:48.167Z,85.06
2024-03-15T07:29:17.346Z,85.06
2024-03-15T07:31:46.509Z,85.16
2024-03-15T07:34:15.986Z,85.04
2024-03-15T07:36:46.171Z,85.11
2024-03-15T07:39:16.594Z,85.01
2024-03-15T07:41:46.135Z,84.72
2024-03-15T07:44:16.312Z,84.38
2024-03-15T07:46:48.355Z,84.28
2024-03-15T07:49:17.551Z,84.28
2024-03-15T07:51:47.642Z,84.57
2024-03-15T07:54:16.987Z,84.57
2024-03-15T07:56:46.176Z,84.46
2024-03-15T07:59:15.347Z,84.43
2024-03-15T08:01:44.581Z,84.02
2024-03-15T08:04:15.441Z,83.69
2024-03-15T08:06:45.789Z,83.24
2024-03-15T08:09:16.843Z,83.16
2024-03-15T08:11:46.129Z,82.81
2024-03-15T08:14:15.298Z,82.39
2024-03-15T08:16:48.158Z,82.46
2024-03-15T08:19:17.729Z,81.68
2024-03-15T08:21:52.525Z,81.62
2024-03-15T08:24:22.944Z,81.72
2024-03-15T08:26:52.229Z,81.85
2024-03-15T08:29:22.636Z,81.51
2024-03-15T08:31:52.250Z,81.18
2024-03-15T08:34:23.111Z,81.09
2024-03-15T08:36:54.679Z,81.55
2024-03-15T08:39:25.984Z,81.23
2024-03-15T08:41:55.563Z,81.05
2024-03-15T08:44:25.858Z,81.48
2024-03-15T08:46:55.502Z,81.17
2024-03-15T08:49:27.478Z,80.25
2024-03-15T08:51:56.871Z,80.09
2024-03-15T08:54:26.287Z,80.45
2024-03-15T08:56:56.863Z,80.35
2024-03-15T08:59:26.065Z,80.49
2024-03-15T09:01:56.906Z,79.60
2024-03-15T09:04:27.017Z,78.90
2024-03-15T09:06:57.735Z,78.30
2024-03-15T09:09:33.847Z,78.89
2024-03-15T09:12:04.810Z,78.68
2024-03-15T09:14:36.587Z,78.24
2024-03-15T09:17:14.017Z,78.68
2024-03-15T09:19:44.016Z,78.85
2024-03-15T09:22:15.218Z,78.19
2024-03-15T09:24:44.530Z,77.09
2024-03-15T09:27:13.788Z,77.14
2024-03-15T09:29:48.461Z,77.05
2024-03-15T09:32:17.751Z,75.92
2024-03-15T09:34:52.365Z,75.69
2024-03-15T09:37:23.684Z,75.20
2024-03-15T09:39:57.160Z,75.43
2024-03-15T09:42:38.575Z,74.51
2024-03-15T09:45:15.473Z,73.23
2024-03-15T09:47:48.134Z,73.41
2024-03-15T09:50:17.755Z,73.20
2024-03-15T09:53:10.763Z,71.00
2024-03-15T09:55:54.908Z,71.31
2024-03-15T09:58:55.467Z,70.06
2024-03-15T10:01:39.503Z,68.61
2024-03-15T10:09:42.033Z,68.10
2024-03-15T10:13:02.378Z,66.07
2024-03-15T10:17:00.662Z,66.61
2024-03-15T10:19:37.020Z,67.35
2024-03-15T10:22:24.927Z,67.24
2024-03-15T10:25:09.677Z,66.76
2024-03-15T10:27:57.205Z,65.38
2024-03-15T10:31:21.051Z,65.42
2024-03-15T10:34:07.632Z,62.28
2024-03-15T10:37:00.793Z,63.19
2024-03-15T10:43:38.840Z,64.41
2024-03-15T10:46:40.282Z,64.91
2024-03-15T10:49:44.055Z,63.76
2024-03-15T10:52:14.652Z,63.50
2024-03-15T11:06:13.553Z,64.06
2024-03-15T11:09:03.948Z,64.67
2024-03-15T11:12:39.078Z,64.98
2024-03-15T11:15:30.587Z,65.20
2024-03-15T11:21:44.244Z,66.70
2024-03-15T11:24:34.180Z,65.63
2024-03-15T11:56:17.282Z,68.02
2024-03-15T12:13:23.079Z,69.66
2024-03-15T12:17:42.114Z,69.86
2024-03-15T13:02:49.527Z,68.13
2024-03-15T13:07:29.572Z,67.71
2024-03-15T13:27:33.370Z,67.61
2024-03-15T13:41:29.860Z,66.58
2024-03-15T15:50:07.182Z,60.06
2024-03-15T16:08:08.593Z,60.50
2024-03-15T16:10:48.901Z,59.62
2024-03-15T16:13:28.012Z,60.07
2024-03-15T16:16:48.242Z,60.02
2024-03-15T16:23:55.280Z,60.22
2024-03-15T16:54:13.799Z,65.06
2024-03-15T16:56:43.163Z,65.40
2024-03-15T16:59:12.482Z,65.74
2024-03-15T17:01:41.930Z,65.96
2024-03-15T17:04:12.436Z,66.00
2024-03-15T17:06:41.982Z,66.16
2024-03-15T17:09:14.426Z,66.61
2024-03-15T17:11:45.027Z,66.91
2024-03-15T17:14:14.473Z,67.08
2024-03-15T17:16:43.734Z,67.30
2024-03-15T17:19:13.000Z,67.59
2024-03-15T17:21:43.206Z,68.06
2024-03-15T17:24:16.116Z,68.88
2024-03-15T17:26:49.039Z,69.62
2024-03-15T17:29:18.240Z,70.26
2024-03-15T17:31:48.125Z,70.85
2024-03-15T17:34:17.460Z,71.40
2024-03-15T17:36:46.864Z,72.84
2024-03-15T17:39:16.425Z,72.89
2024-03-15T17:41:46.077Z,73.68
2024-03-15T17:44:15.272Z,73.65
2024-03-15T17:46:44.681Z,73.71
2024-03-15T17:49:14.429Z,73.79
2024-03-15T17:51:43.925Z,73.79
2024-03-15T17:54:13.610Z,74.16
2024-03-15T17:56:47.157Z,74.29
2024-03-15T17:59:16.351Z,74.48
2024-03-15T18:01:46.843Z,74.64
2024-03-15T18:04:16.062Z,74.90
2024-03-15T18:06:45.722Z,75.18
2024-03-15T18:09:14.889Z,75.44
2024-03-15T18:11:45.869Z,75.34
2024-03-15T18:14:15.106Z,75.41
2024-03-15T18:16:44.316Z,75.66
2024-03-15T18:19:13.652Z,76.01
2024-03-15T18:21:42.895Z,76.12
2024-03-15T18:24:12.338Z,76.29
2024-03-15T18:26:42.113Z,76.39
2024-03-15T18:29:11.243Z,76.41
2024-03-15T18:31:40.414Z,76.65
2024-03-15T18:34:10.267Z,76.71
2024-03-15T18:36:39.530Z,76.98
2024-03-15T18:39:09.764Z,77.05
2024-03-15T18:41:38.918Z,77.10
2024-03-15T18:44:23.583Z,77.10
2024-03-15T18:46:53.111Z,77.14
2024-03-15T18:49:22.352Z,77.42
2024-03-15T18:51:51.565Z,77.42
2024-03-15T18:54:21.306Z,77.47
2024-03-15T18:56:54.762Z,77.53
2024-03-15T18:59:31.104Z,77.49
2024-03-15T19:02:02.881Z,78.36
2024-03-15T19:04:32.453Z,78.99
2024-03-15T19:07:03.811Z,78.45
2024-03-15T19:09:33.200Z,77.95
2024-03-15T19:12:04.482Z,76.29
2024-03-15T19:14:33.640Z,76.62
2024-03-15T19:17:02.790Z,76.53
2024-03-15T19:19:31.882Z,76.30
2024-03-15T19:22:01.062Z,76.40
2024-03-15T19:24:30.627Z,76.59
2024-03-15T19:27:02.147Z,76.55
2024-03-15T19:29:31.257Z,76.53
2024-03-15T19:32:00.511Z,76.66
2024-03-15T19:34:29.708Z,76.72
2024-03-15T19:36:59.053Z,76.83
2024-03-15T19:39:28.390Z,76.81
2024-03-15T19:41:57.584Z,76.83
2024-03-15T19:44:27.028Z,76.90
2024-03-15T19:46:56.333Z,76.80
2024-03-15T19:49:25.567Z,76.94
2024-03-15T19:51:54.927Z,77.01
2024-03-15T19:54:24.441Z,77.18
2024-03-15T19:56:55.325Z,77.31
2024-03-15T19:59:25.652Z,77.27
2024-03-15T20:01:55.166Z,77.32
2024-03-15T20:04:25.285Z,77.50
2024-03-15T20:06:55.504Z,77.62
2024-03-15T20:09:25.832Z,77.71
2024-03-15T20:11:55.381Z,77.99
2024-03-15T20:14:26.885Z,77.98
2024-03-15T20:16:57.749Z,77.85
2024-03-15T20:19:30.755Z,78.12
2024-03-15T20:22:04.154Z,78.34
2024-03-15T20:24:33.805Z,78.43
2024-03-15T20:27:03.279Z,78.44
2024-03-15T20:29:32.919Z,78.50
2024-03-15T20:32:02.328Z,78.55
2024-03-15T20:34:31.882Z,78.57
2024-03-15T20:37:01.303Z,78.66
2024-03-15T20:39:32.559Z,78.57
2024-03-15T20:42:14.461Z,78.83
2024-03-15T20:44:48.386Z,78.73
2024-03-15T20:47:19.420Z,78.78
2024-03-15T20:49:50.562Z,78.93
2024-03-15T20:52:20.679Z,78.86
2024-03-15T20:54:52.412Z,79.29
2024-03-15T20:57:21.687Z,79.34
2024-03-15T20:59:51.196Z,79.67
2024-03-15T21:02:20.659Z,79.54
2024-03-15T21:04:50.573Z,79.52
2024-03-15T21:07:20.585Z,79.57
2024-03-15T21:09:49.803Z,79.49
2024-03-15T21:12:19.515Z,79.51
2024-03-15T21:14:48.866Z,79.59
2024-03-15T21:17:18.085Z,79.45
2024-03-15T21:19:50.268Z,79.73
2024-03-15T21:22:20.300Z,79.83
2024-03-15T21:24:50.354Z,79.85
2024-03-15T21:27:21.429Z,79.79
2024-03-15T21:29:50.681Z,79.77
2024-03-15T21:32:20.375Z,79.88
2024-03-15T21:34:50.062Z,79.89
2024-03-15T21:37:19.449Z,79.97
2024-03-15T21:39:48.646Z,79.98
2024-03-15T21:42:18.436Z,80.05
2024-03-15T21:44:47.754Z,79.92
2024-03-15T21:47:18.558Z,80.10
2024-03-15T21:49:51.100Z,80.16
2024-03-15T21:52:21.377Z,80.17
2024-03-15T21:54:51.334Z,80.34
2024-03-15T21:57:20.883Z,80.27
2024-03-15T21:59:50.024Z,80.24
2024-03-15T22:02:19.584Z,80.30
2024-03-15T22:04:49.678Z,80.23
2024-03-15T22:07:18.889Z,80.37
2024-03-15T22:09:48.197Z,80.34
2024-03-15T22:12:17.794Z,80.42
2024-03-15T22:14:47.269Z,80.72
2024-03-15T22:17:16.423Z,80.65
2024-03-15T22:19:45.599Z,80.86
2024-03-15T22:22:15.252Z,80.70
2024-03-15T22:24:44.489Z,80.87
2024-03-15T22:27:15.070Z,81.04
2024-03-15T22:29:45.532Z,81.01
2024-03-15T22:32:14.676Z,81.41
2024-03-15T22:34:43.823Z,81.27
2024-03-15T22:37:13.099Z,81.57
2024-03-15T22:39:42.272Z,81.44
2024-03-15T22:42:11.498Z,81.53
2024-03-15T22:44:42.970Z,81.51
2024-03-15T22:47:12.596Z,81.37
2024-03-15T22:49:41.712Z,81.35
2024-03-15T22:52:10.979Z,81.49
2024-03-15T22:54:40.178Z,81.48
2024-03-15T22:57:10.901Z,81.62
2024-03-15T22:59:40.626Z,81.61
2024-03-15T23:02:09.706Z,81.70
2024-03-15T23:04:38.838Z,81.64
2024-03-15T23:07:08.215Z,81.51
2024-03-15T23:42:50.867Z,82.15
2024-03-15T23:45:20.186Z,81.92
2024-03-15T23:47:49.323Z,82.10
2024-03-15T23:50:18.537Z,82.14
2024-03-15T23:52:47.923Z,82.33
2024-03-15T23:55:17.131Z,82.42
2024-03-15T23:57:46.321Z,82.29
